createdAt,value
2016-04-18T00:00:22.880Z,99.99
2016-04-18T00:01:22.710Z,99.99
2016-04-18T00:03:22.716Z,99.99
2016-04-18T00:04:21.718Z,99.99
2016-04-18T00:05:21.660Z,99.99
2016-04-18T00:06:21.756Z,99.99
2016-04-18T00:07:22.681Z,99.99
2016-04-18T00:08:22.684Z,99.99
2016-04-18T00:09:22.373Z,99.99
2016-04-18T00:10:21.970Z,99.99
2016-04-18T00:11:22.894Z,99.99
2016-04-18T00:12:21.647Z,99.99
2016-04-18T00:13:22.883Z,99.99
2016-04-18T00:14:28.808Z,99.99
2016-04-18T00:15:21.894Z,99.99
2016-04-18T00:16:21.674Z,99.99
2016-04-18T00:17:21.845Z,99.99
2016-04-18T00:18:21.766Z,99.99
2016-04-18T00:19:22.609Z,99.99
2016-04-18T00:20:22.797Z,99.99
2016-04-18T00:21:22.112Z,99.99
2016-04-18T00:22:22.927Z,99.99
2016-04-18T00:24:22.839Z,99.99
2016-04-18T00:25:21.820Z,99.99
2016-04-18T00:26:21.844Z,99.99
2016-04-18T00:27:21.712Z,99.99
2016-04-18T00:28:22.783Z,99.99
2016-04-18T00:29:21.714Z,99.99
2016-04-18T00:30:22.892Z,99.99
2016-04-18T00:32:22.901Z,99.99
2016-04-18T00:33:21.671Z,99.99
2016-04-18T00:34:21.628Z,99.99
2016-04-18T00:35:21.601Z,99.99
2016-04-18T00:36:22.840Z,99.99
2016-04-18T00:37:21.639Z,99.99
2016-04-18T00:38:21.940Z,99.99
2016-04-18T00:39:22.193Z,99.99
2016-04-18T00:40:21.649Z,99.99
2016-04-18T00:41:22.934Z,99.99
2016-04-18T00:42:22.703Z,99.99
2016-04-18T00:43:22.378Z,99.99
2016-04-18T00:44:22.428Z,99.99
2016-04-18T00:45:22.415Z,99.99
2016-04-18T00:46:21.605Z,99.99
2016-04-18T00:47:22.608Z,99.99
2016-04-18T00:48:21.579Z,99.99
2016-04-18T00:49:21.489Z,99.99
2016-04-18T00:50:22.648Z,99.99
2016-04-18T00:51:22.666Z,99.99
2016-04-18T00:52:23.294Z,99.99
2016-04-18T00:53:22.405Z,99.99
2016-04-18T00:54:22.252Z,99.99
2016-04-18T00:55:22.599Z,99.99
2016-04-18T00:57:22.432Z,99.99
2016-04-18T00:58:22.810Z,99.99
2016-04-18T00:59:21.453Z,99.99
2016-04-18T01:00:21.660Z,99.99
2016-04-18T01:01:21.349Z,99.99
2016-04-18T01:02:39.758Z,99.99
2016-04-18T01:04:24.529Z,99.99
2016-04-18T01:06:12.941Z,99.99
2016-04-18T01:08:00.759Z,99.76
2016-04-18T01:09:45.479Z,99.95
2016-04-18T01:11:28.423Z,99.57
2016-04-18T01:13:09.272Z,99.99
2016-04-18T01:14:56.449Z,99.99
2016-04-18T01:16:41.233Z,99.99
2016-04-18T01:18:32.847Z,99.99
2016-04-18T01:20:14.431Z,99.99
2016-04-18T01:22:00.078Z,99.99
2016-04-18T01:23:36.736Z,99.99
2016-04-18T01:25:22.945Z,99.99
2016-04-18T01:27:18.449Z,99.99
2016-04-18T01:29:09.533Z,99.99
2016-04-18T01:31:16.774Z,99.99
2016-04-18T01:32:05.760Z,99.99
2016-04-18T01:34:06.688Z,99.99
2016-04-18T01:35:07.410Z,99.99
2016-04-18T01:36:19.302Z,99.99
2016-04-18T01:37:41.259Z,99.99
2016-04-18T01:39:05.185Z,99.99
2016-04-18T01:40:26.953Z,99.99
2016-04-18T01:41:50.928Z,99.99
2016-04-18T01:43:22.962Z,99.99
2016-04-18T01:44:45.746Z,99.99
2016-04-18T01:47:26.270Z,99.99
2016-04-18T01:48:45.147Z,99.99
2016-04-18T01:49:58.230Z,99.99
2016-04-18T01:51:19.327Z,99.99
2016-04-18T01:52:37.142Z,99.99
2016-04-18T01:55:10.885Z,99.99
2016-04-18T01:56:35.122Z,99.99
2016-04-18T01:57:58.861Z,99.99
2016-04-18T01:59:20.458Z,99.99
2016-04-18T02:00:43.648Z,99.99
2016-04-18T02:02:03.810Z,99.99
2016-04-18T02:03:29.062Z,99.99
2016-04-18T02:04:49.378Z,99.99
2016-04-18T02:06:11.914Z,99.95
2016-04-18T02:06:48.351Z,99.99
2016-04-18T02:07:47.745Z,99.99
2016-04-18T02:08:47.202Z,99.99
2016-04-18T02:09:48.188Z,99.99
2016-04-18T02:10:46.972Z,99.99
2016-04-18T02:11:47.756Z,99.99
2016-04-18T02:12:55.965Z,99.99
2016-04-18T02:13:46.902Z,99.99
2016-04-18T02:15:47.673Z,99.99
2016-04-18T02:16:47.754Z,99.99
2016-04-18T02:17:47.975Z,99.99
2016-04-18T02:18:47.681Z,99.99
2016-04-18T02:19:46.762Z,99.99
2016-04-18T02:20:47.687Z,99.99
2016-04-18T02:21:46.767Z,99.99
2016-04-18T02:22:47.161Z,99.99
2016-04-18T02:23:47.710Z,99.99
2016-04-18T02:25:47.668Z,99.99
2016-04-18T02:26:47.547Z,99.99
2016-04-18T02:27:47.611Z,99.99
2016-04-18T02:28:47.661Z,99.99
2016-04-18T02:29:46.711Z,99.99
2016-04-18T02:30:47.338Z,99.99
2016-04-18T02:31:49.216Z,99.99
2016-04-18T02:32:46.703Z,99.62
2016-04-18T02:34:46.474Z,99.99
2016-04-18T02:35:47.368Z,99.99
2016-04-18T02:36:46.588Z,99.99
2016-04-18T02:37:47.529Z,99.99
2016-04-18T02:38:46.781Z,99.99
2016-04-18T02:39:47.363Z,99.99
2016-04-18T02:40:47.350Z,99.99
2016-04-18T02:41:47.446Z,99.99
2016-04-18T02:42:46.387Z,99.99
2016-04-18T02:43:46.451Z,99.99
2016-04-18T02:44:47.375Z,99.99
2016-04-18T02:45:46.675Z,99.99
2016-04-18T02:46:46.631Z,99.99
2016-04-18T02:47:47.650Z,99.99
2016-04-18T02:48:46.652Z,99.99
2016-04-18T02:49:46.577Z,99.99
2016-04-18T02:50:47.564Z,99.99
2016-04-18T02:51:47.067Z,99.99
2016-04-18T02:52:47.272Z,99.99
2016-04-18T02:53:47.400Z,99.99
2016-04-18T02:54:48.434Z,99.99
2016-04-18T02:55:46.515Z,99.99
2016-04-18T02:56:47.267Z,99.99
2016-04-18T02:57:47.020Z,99.99
2016-04-18T02:58:46.351Z,99.99
2016-04-18T02:59:47.198Z,99.99
2016-04-18T03:00:46.481Z,99.99
2016-04-18T03:01:47.610Z,99.99
2016-04-18T03:02:47.237Z,99.99
2016-04-18T03:03:47.380Z,99.99
2016-04-18T03:04:46.429Z,99.99
2016-04-18T03:05:46.213Z,99.99
2016-04-18T03:06:47.513Z,99.99
2016-04-18T03:07:47.188Z,99.99
2016-04-18T03:08:47.535Z,99.99
2016-04-18T03:09:47.647Z,99.99
2016-04-18T03:10:47.055Z,99.99
2016-04-18T03:11:46.043Z,99.99
2016-04-18T03:12:46.014Z,99.99
2016-04-18T03:13:47.188Z,99.99
2016-04-18T03:14:47.191Z,99.99
2016-04-18T03:15:46.163Z,99.99
2016-04-18T03:16:47.228Z,99.99
2016-04-18T03:17:46.949Z,99.99
2016-04-18T03:18:46.077Z,99.99
2016-04-18T03:19:46.814Z,99.99
2016-04-18T03:20:45.895Z,99.99
2016-04-18T03:21:47.069Z,99.99
2016-04-18T03:22:46.900Z,99.99
2016-04-18T03:23:47.325Z,99.99
2016-04-18T03:24:46.062Z,99.99
2016-04-18T03:25:47.345Z,99.99
2016-04-18T03:26:45.833Z,99.99
2016-04-18T03:28:05.541Z,99.99
2016-04-18T03:29:54.187Z,99.99
2016-04-18T03:31:40.221Z,99.99
2016-04-18T03:33:43.024Z,99.99
2016-04-18T03:35:57.156Z,99.99
2016-04-18T03:37:57.834Z,99.99
2016-04-18T03:39:53.543Z,99.99
2016-04-18T03:42:13.532Z,99.99
2016-04-18T03:44:50.568Z,99.99
2016-04-18T03:47:04.796Z,99.99
2016-04-18T03:49:12.442Z,99.99
2016-04-18T03:51:45.478Z,99.99
2016-04-18T03:54:00.736Z,99.99
2016-04-18T03:55:53.897Z,99.99
2016-04-18T03:57:37.681Z,99.99
2016-04-18T03:58:38.247Z,99.99
2016-04-18T03:59:38.656Z,99.99
2016-04-18T04:00:38.236Z,99.99
2016-04-18T04:01:37.724Z,99.99
2016-04-18T04:02:38.399Z,99.95
2016-04-18T04:03:38.355Z,99.66
2016-04-18T04:04:37.747Z,99.99
2016-04-18T04:05:38.157Z,99.38
2016-04-18T04:06:37.502Z,99.48
2016-04-18T04:07:38.146Z,99.57
2016-04-18T04:08:38.430Z,99.19
2016-04-18T04:09:37.167Z,99.48
2016-04-18T04:10:38.154Z,99.24
2016-04-18T04:11:38.110Z,99.43
2016-04-18T04:12:38.082Z,99.43
2016-04-18T04:13:38.396Z,99.05
2016-04-18T04:14:38.493Z,99.05
2016-04-18T04:15:38.105Z,98.77
2016-04-18T04:16:37.514Z,99.24
2016-04-18T04:17:38.251Z,99.62
2016-04-18T04:18:38.051Z,99.8
2016-04-18T04:19:38.256Z,99.8
2016-04-18T04:20:37.275Z,99.62
2016-04-18T04:21:37.292Z,99.99
2016-04-18T04:22:38.218Z,99.99
2016-04-18T04:23:38.205Z,99.99
2016-04-18T04:24:38.004Z,99.99
2016-04-18T04:25:38.148Z,99.99
2016-04-18T04:26:37.978Z,99.99
2016-04-18T04:27:37.966Z,99.99
2016-04-18T04:28:37.296Z,99.99
2016-04-18T04:29:37.143Z,99.99
2016-04-18T04:30:38.099Z,99.99
2016-04-18T04:31:37.289Z,99.99
2016-04-18T04:32:38.182Z,99.99
2016-04-18T04:33:38.060Z,99.99
2016-04-18T04:34:38.188Z,99.99
2016-04-18T04:35:38.096Z,99.99
2016-04-18T04:36:37.240Z,99.99
2016-04-18T04:37:38.023Z,99.99
2016-04-18T04:38:38.010Z,99.99
2016-04-18T04:39:38.123Z,99.99
2016-04-18T04:40:38.157Z,99.99
2016-04-18T04:41:37.816Z,99.99
2016-04-18T04:42:37.677Z,99.99
2016-04-18T04:43:38.009Z,99.99
2016-04-18T04:44:38.261Z,99.99
2016-04-18T04:45:36.889Z,99.99
2016-04-18T04:46:38.141Z,99.99
2016-04-18T04:48:37.521Z,99.99
2016-04-18T04:49:38.024Z,99.99
2016-04-18T04:50:37.964Z,99.99
2016-04-18T04:51:38.405Z,99.99
2016-04-18T04:53:36.831Z,99.99
2016-04-18T04:55:37.774Z,99.99
2016-04-18T04:56:37.886Z,99.99
2016-04-18T04:57:37.827Z,99.99
2016-04-18T04:58:38.094Z,99.99
2016-04-18T04:59:38.394Z,99.99
2016-04-18T05:00:37.460Z,99.99
2016-04-18T05:01:37.540Z,99.99
2016-04-18T05:02:38.215Z,99.99
2016-04-18T05:03:37.779Z,99.99
2016-04-18T05:04:37.985Z,99.99
2016-04-18T05:05:36.598Z,99.99
2016-04-18T05:06:37.804Z,99.99
2016-04-18T05:07:38.198Z,99.99
2016-04-18T05:08:38.418Z,99.99
2016-04-18T05:09:38.562Z,99.99
2016-04-18T05:10:38.173Z,99.99
2016-04-18T05:11:36.583Z,99.99
2016-04-18T05:12:37.461Z,99.99
2016-04-18T05:13:37.916Z,99.99
2016-04-18T05:14:38.028Z,99.99
2016-04-18T05:15:39.172Z,99.99
2016-04-18T05:16:38.378Z,99.99
2016-04-18T05:17:36.645Z,99.99
2016-04-18T05:18:37.633Z,99.99
2016-04-18T05:19:36.650Z,99.99
2016-04-18T05:20:36.372Z,99.99
2016-04-18T05:21:37.563Z,99.99
2016-04-18T05:22:36.456Z,99.99
2016-04-18T05:23:36.443Z,99.99
2016-04-18T05:24:38.071Z,99.99
2016-04-18T05:25:36.355Z,99.99
2016-04-18T05:26:36.404Z,99.99
2016-04-18T05:27:36.641Z,99.99
2016-04-18T05:28:37.534Z,99.99
2016-04-18T05:29:36.386Z,99.99
2016-04-18T05:30:36.561Z,99.99
2016-04-18T05:31:36.408Z,99.99
2016-04-18T05:32:36.224Z,99.99
2016-04-18T05:33:52.463Z,99.99
2016-04-18T05:35:25.902Z,99.99
2016-04-18T05:36:49.546Z,99.99
2016-04-18T05:38:10.974Z,99.99
2016-04-18T05:39:58.448Z,99.99
2016-04-18T05:41:22.623Z,99.99
2016-04-18T05:42:47.187Z,99.99
2016-04-18T05:44:00.442Z,99.99
2016-04-18T05:45:23.117Z,99.99
2016-04-18T05:46:48.526Z,99.99
2016-04-18T05:48:15.735Z,99.99
2016-04-18T05:49:38.534Z,99.99
2016-04-18T05:51:02.133Z,99.99
2016-04-18T05:52:24.089Z,99.99
2016-04-18T05:53:52.373Z,99.99
2016-04-18T05:55:12.411Z,99.99
2016-04-18T05:56:37.851Z,99.99
2016-04-18T05:57:54.200Z,99.99
2016-04-18T05:59:51.749Z,99.99
2016-04-18T06:01:23.457Z,99.99
2016-04-18T06:03:01.728Z,99.99
2016-04-18T06:03:48.307Z,99.99
2016-04-18T06:04:49.341Z,99.99
2016-04-18T06:05:49.313Z,99.99
2016-04-18T06:06:48.346Z,99.99
2016-04-18T06:07:48.396Z,99.99
2016-04-18T06:08:49.335Z,99.99
2016-04-18T06:09:48.354Z,99.99
2016-04-18T06:10:50.168Z,99.99
2016-04-18T06:11:49.156Z,99.99
2016-04-18T06:12:50.252Z,99.99
2016-04-18T06:13:48.568Z,99.99
2016-04-18T06:14:49.430Z,99.99
2016-04-18T06:15:48.245Z,99.99
2016-04-18T06:16:48.279Z,99.99
2016-04-18T06:17:49.047Z,99.99
2016-04-18T06:18:48.301Z,99.99
2016-04-18T06:19:48.225Z,99.99
2016-04-18T06:20:48.728Z,99.99
2016-04-18T06:21:48.933Z,99.99
2016-04-18T06:22:49.092Z,99.99
2016-04-18T06:23:48.156Z,99.99
2016-04-18T06:24:49.331Z,99.99
2016-04-18T06:25:48.928Z,99.99
2016-04-18T06:26:48.181Z,99.99
2016-04-18T06:27:48.418Z,99.99
2016-04-18T06:28:48.811Z,99.99
2016-04-18T06:29:49.048Z,99.99
2016-04-18T06:30:49.833Z,99.99
2016-04-18T06:31:48.819Z,99.99
2016-04-18T06:32:48.072Z,99.99
2016-04-18T06:33:48.793Z,99.99
2016-04-18T06:34:48.812Z,99.99
2016-04-18T06:35:48.236Z,99.99
2016-04-18T06:36:49.083Z,99.99
2016-04-18T06:37:48.914Z,99.99
2016-04-18T06:38:48.744Z,99.99
2016-04-18T06:39:48.340Z,99.99
2016-04-18T06:40:48.782Z,99.99
2016-04-18T06:41:48.955Z,99.99
2016-04-18T06:42:49.490Z,99.84
2016-04-18T06:43:48.993Z,98.97
2016-04-18T06:44:48.245Z,98.41
2016-04-18T06:45:48.154Z,98.03
2016-04-18T06:46:49.000Z,97.55
2016-04-18T06:47:49.128Z,96.41
2016-04-18T06:48:48.990Z,96.94
2016-04-18T06:49:48.149Z,96.26
2016-04-18T06:50:48.652Z,96.74
2016-04-18T06:51:49.357Z,95.41
2016-04-18T06:52:48.829Z,95.03
2016-04-18T06:53:48.956Z,94.46
2016-04-18T06:54:48.381Z,94.08
2016-04-18T06:55:48.572Z,92.94
2016-04-18T06:56:48.856Z,89.56
2016-04-18T06:57:48.077Z,86.36
2016-04-18T06:58:49.892Z,83.32
2016-04-18T06:59:48.941Z,79.07
2016-04-18T07:00:48.835Z,74.63
2016-04-18T07:01:48.071Z,69.52
2016-04-18T07:02:48.261Z,67.14
2016-04-18T07:03:47.983Z,70.22
2016-04-18T07:04:47.782Z,67.3
2016-04-18T07:05:48.832Z,65.1
2016-04-18T07:06:48.382Z,62.46
2016-04-18T07:07:48.994Z,58.76
2016-04-18T07:08:47.778Z,58.1
2016-04-18T07:09:48.828Z,58.38
2016-04-18T07:10:48.799Z,59.05
2016-04-18T07:11:48.958Z,52.87
2016-04-18T07:12:47.945Z,54.02
2016-04-18T07:13:48.073Z,57.26
2016-04-18T07:14:47.840Z,59.75
2016-04-18T07:15:47.844Z,59.56
2016-04-18T07:16:48.768Z,58.7
2016-04-18T07:17:48.927Z,58.03
2016-04-18T07:18:48.867Z,57.75
2016-04-18T07:19:48.448Z,57.36
2016-04-18T07:20:48.872Z,60.2
2016-04-18T07:21:47.773Z,61.63
2016-04-18T07:22:48.994Z,60.2
2016-04-18T07:23:48.810Z,58.22
2016-04-18T07:24:48.469Z,58.06
2016-04-18T07:25:48.394Z,57.58
2016-04-18T07:26:48.864Z,50.81
2016-04-18T07:27:48.633Z,51.03
2016-04-18T07:28:49.261Z,53.16
2016-04-18T07:29:47.638Z,54.05
2016-04-18T07:30:47.625Z,49.38
2016-04-18T07:31:48.675Z,47.49
2016-04-18T07:32:57.821Z,45.01
2016-04-18T07:33:48.399Z,45.04
2016-04-18T07:34:48.855Z,41.39
2016-04-18T07:35:48.685Z,40.99
2016-04-18T07:36:48.641Z,43.29
2016-04-18T07:37:48.315Z,45.09
2016-04-18T07:38:47.631Z,47.06
2016-04-18T07:39:48.509Z,48.28
2016-04-18T07:40:48.636Z,49.19
2016-04-18T07:41:47.670Z,49.52
2016-04-18T07:42:48.001Z,52.91
2016-04-18T07:43:47.706Z,53.62
2016-04-18T07:44:47.897Z,55.43
2016-04-18T07:45:49.087Z,56.93
2016-04-18T07:46:47.589Z,58.07
2016-04-18T07:47:47.561Z,59.99
2016-04-18T07:48:47.502Z,55.69
2016-04-18T07:49:47.536Z,56.65
2016-04-18T07:50:47.679Z,58.94
2016-04-18T07:51:48.542Z,61.99
2016-04-18T07:52:48.278Z,60.55
2016-04-18T07:53:47.562Z,56.17
2016-04-18T07:54:48.689Z,56.81
2016-04-18T07:55:47.583Z,58.52
2016-04-18T07:56:47.523Z,59.54
2016-04-18T07:57:48.510Z,58.78
2016-04-18T07:58:47.841Z,61.9
2016-04-18T07:59:47.578Z,64.08
2016-04-18T08:00:48.221Z,65.23
2016-04-18T08:01:47.552Z,65.77
2016-04-18T08:02:47.507Z,67.07
2016-04-18T08:03:49.293Z,68.3
2016-04-18T08:04:49.060Z,69.88
2016-04-18T08:05:47.813Z,69.5
2016-04-18T08:06:47.534Z,71.22
2016-04-18T08:07:48.412Z,71.31
2016-04-18T08:08:48.681Z,71.08
2016-04-18T08:09:48.418Z,71.56
2016-04-18T08:10:48.186Z,73.27
2016-04-18T08:11:48.454Z,73.74
2016-04-18T08:12:47.847Z,72.51
2016-04-18T08:13:48.647Z,72.6
2016-04-18T08:14:47.337Z,71.75
2016-04-18T08:15:49.105Z,72.22
2016-04-18T08:16:48.358Z,73.18
2016-04-18T08:17:48.548Z,73.46
2016-04-18T08:18:48.333Z,73.99
2016-04-18T08:19:47.303Z,73.99
2016-04-18T08:20:48.292Z,74.47
2016-04-18T08:21:47.403Z,73.99
2016-04-18T08:22:48.344Z,76.46
2016-04-18T08:23:48.956Z,76.18
2016-04-18T08:24:47.365Z,74.66
2016-04-18T08:25:48.242Z,74.66
2016-04-18T08:26:48.479Z,74.75
2016-04-18T08:27:48.263Z,75.23
2016-04-18T08:28:48.562Z,75.23
2016-04-18T08:29:48.471Z,74.08
2016-04-18T08:30:49.130Z,73.8
2016-04-18T08:31:47.211Z,73.23
2016-04-18T08:32:49.417Z,73.71
2016-04-18T08:33:48.311Z,72.75
2016-04-18T08:34:48.407Z,72.28
2016-04-18T08:35:48.346Z,72.09
2016-04-18T08:36:48.600Z,72.56
2016-04-18T08:37:48.555Z,73.19
2016-04-18T08:38:47.230Z,73.86
2016-04-18T08:39:49.061Z,73.76
2016-04-18T08:40:47.720Z,74.15
2016-04-18T08:41:48.535Z,73.99
2016-04-18T08:42:48.584Z,72.47
2016-04-18T08:43:47.900Z,72.19
2016-04-18T08:44:48.496Z,71.33
2016-04-18T08:45:49.640Z,68.42
2016-04-18T08:46:48.501Z,65.95
2016-04-18T08:47:48.473Z,66.14
2016-04-18T08:48:47.741Z,66.24
2016-04-18T08:49:48.416Z,67.03
2016-04-18T08:50:47.340Z,68.17
2016-04-18T08:51:48.640Z,65.8
2016-04-18T08:52:48.596Z,63.99
2016-04-18T08:53:47.255Z,65.13
2016-04-18T08:54:48.773Z,67.73
2016-04-18T08:55:48.698Z,63.07
2016-04-18T08:56:49.263Z,59.55
2016-04-18T08:57:48.858Z,60.12
2016-04-18T08:58:47.440Z,62.78
2016-04-18T08:59:48.521Z,65.06
2016-04-18T09:00:46.882Z,64.9
2016-04-18T09:01:48.527Z,63.29
2016-04-18T09:02:47.263Z,65.67
2016-04-18T09:03:50.079Z,65.19
2016-04-18T09:04:50.456Z,60.82
2016-04-18T09:05:50.522Z,62.43
2016-04-18T09:06:51.555Z,63.86
2016-04-18T09:07:50.715Z,64.24
2016-04-18T09:08:50.468Z,62.43
2016-04-18T09:09:50.439Z,62.34
2016-04-18T09:10:50.472Z,60.63
2016-04-18T09:11:50.162Z,62.97
2016-04-18T09:12:50.510Z,62.88
